createdAt,value
2022-11-09T00:02:20.736Z,63.63
2022-11-09T00:04:53.645Z,63.05
2022-11-09T00:07:26.446Z,66.68
2022-11-09T00:09:59.376Z,64.13
2022-11-09T00:12:32.269Z,63.90
2022-11-09T00:15:05.476Z,64.28
2022-11-09T00:17:38.175Z,64.78
2022-11-09T00:20:11.654Z,62.83
2022-11-09T00:22:48.942Z,57.60
2022-11-09T00:25:21.764Z,63.25
2022-11-09T00:27:54.597Z,61.38
2022-11-09T00:30:28.002Z,62.83
2022-11-09T00:33:01.026Z,61.97
2022-11-09T00:35:34.484Z,62.15
2022-11-09T00:38:09.388Z,62.10
2022-11-09T00:40:43.977Z,61.20
2022-11-09T00:43:17.398Z,62.72
2022-11-09T00:45:52.779Z,61.70
2022-11-09T00:48:26.955Z,65.18
2022-11-09T00:51:00.469Z,63.83
2022-11-09T00:53:34.698Z,62.17
2022-11-09T00:56:10.935Z,65.18
2022-11-09T00:58:43.715Z,61.95
2022-11-09T01:01:18.211Z,66.25
2022-11-09T01:03:51.543Z,64.85
2022-11-09T01:06:26.955Z,64.63
2022-11-09T01:08:59.828Z,63.95
2022-11-09T01:11:32.736Z,62.63
2022-11-09T01:14:05.742Z,62.40
2022-11-09T01:16:40.115Z,64.32
2022-11-09T01:19:12.948Z,61.80
2022-11-09T01:21:45.873Z,58.88
2022-11-09T01:24:18.745Z,62.30
2022-11-09T01:26:51.587Z,58.63
2022-11-09T01:32:01.600Z,61.95
2022-11-09T01:34:37.444Z,61.35
2022-11-09T01:37:10.200Z,57.20
2022-11-09T01:39:43.165Z,58.85
2022-11-09T01:42:21.805Z,54.95
2022-11-09T01:45:25.560Z,51.60
2022-11-09T01:48:07.223Z,52.65
2022-11-09T01:50:43.381Z,49.75
2022-11-09T01:53:23.328Z,50.20
2022-11-09T01:56:00.570Z,48.97
2022-11-09T01:58:42.434Z,46.80
2022-11-09T02:01:17.885Z,45.92
2022-11-09T02:04:09.394Z,46.78
2022-11-09T02:06:42.408Z,46.22
2022-11-09T02:09:18.229Z,46.40
2022-11-09T02:11:51.054Z,45.65
2022-11-09T02:14:27.290Z,44.92
2022-11-09T02:17:01.154Z,44.75
2022-11-09T02:19:34.104Z,45.50
2022-11-09T02:22:06.943Z,44.13
2022-11-09T02:24:39.752Z,44.13
2022-11-09T02:27:12.529Z,42.25
2022-11-09T02:29:48.191Z,42.83
2022-11-09T02:32:24.677Z,43.67
2022-11-09T02:35:02.127Z,43.88
2022-11-09T02:37:39.992Z,42.53
2022-11-09T02:40:22.907Z,41.90
2022-11-09T02:42:57.137Z,42.10
2022-11-09T02:45:29.973Z,43.70
2022-11-09T02:48:03.168Z,40.28
2022-11-09T02:50:37.352Z,42.50
2022-11-09T02:55:48.344Z,44.67
2022-11-09T02:58:21.155Z,45.78
2022-11-09T03:00:54.218Z,45.55
2022-11-09T03:06:01.828Z,43.90
2022-11-09T03:08:35.388Z,45.58
2022-11-09T03:11:09.159Z,44.28
2022-11-09T03:13:42.135Z,44.40
2022-11-09T03:16:14.953Z,45.05
2022-11-09T03:18:47.839Z,43.90
2022-11-09T03:21:22.435Z,45.03
2022-11-09T03:23:57.659Z,46.00
2022-11-09T03:26:30.546Z,47.42
2022-11-09T03:29:04.494Z,47.30
2022-11-09T03:31:37.534Z,44.92
2022-11-09T03:34:14.362Z,46.70
2022-11-09T03:36:47.294Z,46.38
2022-11-09T03:39:20.089Z,46.65
2022-11-09T03:41:53.756Z,46.97
2022-11-09T03:44:26.611Z,48.17
2022-11-09T03:46:59.539Z,47.65
2022-11-09T03:49:32.339Z,48.17
2022-11-09T03:52:05.361Z,48.45
2022-11-09T03:54:38.202Z,47.30
2022-11-09T03:57:11.023Z,48.38
2022-11-09T03:59:43.827Z,49.70
2022-11-09T04:02:16.609Z,49.20
2022-11-09T04:04:49.602Z,50.97
2022-11-09T04:07:22.510Z,51.83
2022-11-09T04:09:55.472Z,53.85
2022-11-09T04:12:28.254Z,54.08
2022-11-09T04:15:00.994Z,53.42
2022-11-09T04:17:33.781Z,53.13
2022-11-09T04:20:08.182Z,52.22
2022-11-09T04:22:40.980Z,54.97
2022-11-09T04:25:13.825Z,55.38
2022-11-09T04:27:46.981Z,49.72
2022-11-09T04:30:19.850Z,55.30
2022-11-09T04:32:52.679Z,54.40
2022-11-09T04:35:26.669Z,54.08
2022-11-09T04:38:02.689Z,53.22
2022-11-09T04:40:36.730Z,55.38
2022-11-09T04:43:14.230Z,50.80
2022-11-09T04:45:47.929Z,55.42
2022-11-09T04:48:20.793Z,55.28
2022-11-09T04:50:59.015Z,55.83
2022-11-09T04:53:32.702Z,54.35
2022-11-09T04:56:06.735Z,53.05
2022-11-09T04:58:40.094Z,53.92
2022-11-09T05:01:14.852Z,37.78
2022-11-09T05:03:47.772Z,53.95
2022-11-09T05:06:36.232Z,54.67
2022-11-09T05:09:09.138Z,55.97
2022-11-09T05:11:42.012Z,54.70
2022-11-09T05:14:14.890Z,56.40
2022-11-09T05:16:47.677Z,56.72
2022-11-09T05:19:20.428Z,56.22
2022-11-09T05:21:53.107Z,57.05
2022-11-09T05:24:25.859Z,56.53
2022-11-09T05:26:58.622Z,57.10
2022-11-09T05:29:31.463Z,59.75
2022-11-09T05:32:05.046Z,59.28
2022-11-09T05:34:37.913Z,60.58
2022-11-09T05:37:10.769Z,62.55
2022-11-09T05:39:43.748Z,60.22
2022-11-09T05:42:16.530Z,61.15
2022-11-09T05:44:49.663Z,60.03
2022-11-09T05:47:22.616Z,60.00
2022-11-09T05:49:55.416Z,57.95
2022-11-09T05:52:28.251Z,58.00
2022-11-09T05:55:01.289Z,56.28
2022-11-09T05:57:34.843Z,57.47
2022-11-09T06:00:11.162Z,59.15
2022-11-09T06:02:47.539Z,59.15
2022-11-09T06:05:22.036Z,63.03
2022-11-09T06:07:55.274Z,61.63
2022-11-09T06:10:28.129Z,62.45
2022-11-09T06:13:01.557Z,60.92
2022-11-09T06:15:34.910Z,59.17
2022-11-09T06:18:07.856Z,59.47
2022-11-09T06:20:41.032Z,58.65
2022-11-09T06:23:13.833Z,60.13
2022-11-09T06:25:46.780Z,57.80
2022-11-09T06:28:20.088Z,58.33
2022-11-09T06:30:53.434Z,57.33
2022-11-09T06:33:27.065Z,57.33
2022-11-09T06:36:00.220Z,60.22
2022-11-09T06:38:33.561Z,61.78
2022-11-09T06:41:06.656Z,60.85
2022-11-09T06:43:39.536Z,61.45
2022-11-09T06:46:18.192Z,61.28
2022-11-09T06:48:54.487Z,61.00
2022-11-09T06:51:27.937Z,59.53
2022-11-09T06:54:00.828Z,58.80
2022-11-09T06:56:33.703Z,60.95
2022-11-09T06:59:06.464Z,56.30
2022-11-09T07:01:39.367Z,55.70
2022-11-09T07:04:15.250Z,59.17
2022-11-09T07:06:48.290Z,55.70
2022-11-09T07:09:21.243Z,55.45
2022-11-09T07:11:54.295Z,57.58
2022-11-09T07:14:27.125Z,55.38
2022-11-09T07:17:00.311Z,57.30
2022-11-09T07:19:33.124Z,57.22
2022-11-09T07:22:05.939Z,59.47
2022-11-09T07:24:38.804Z,57.35
2022-11-09T07:27:11.731Z,59.10
2022-11-09T07:29:44.527Z,55.88
2022-11-09T07:32:17.425Z,61.35
2022-11-09T07:34:50.411Z,59.47
2022-11-09T07:37:23.242Z,59.88
2022-11-09T07:39:56.152Z,59.88
2022-11-09T07:42:28.938Z,60.65
2022-11-09T07:45:01.775Z,62.47
2022-11-09T07:47:35.033Z,61.90
2022-11-09T07:50:08.136Z,65.22
2022-11-09T07:52:41.064Z,64.57
2022-11-09T07:55:13.911Z,67.32
2022-11-09T07:57:47.719Z,70.43
2022-11-09T08:00:23.627Z,71.68
2022-11-09T08:02:56.972Z,73.28
2022-11-09T08:05:30.408Z,75.95
2022-11-09T08:08:07.215Z,69.85
2022-11-09T08:10:40.660Z,73.20
2022-11-09T08:13:15.302Z,72.65
2022-11-09T08:15:49.428Z,73.43
2022-11-09T08:18:23.222Z,73.70
2022-11-09T08:20:56.526Z,72.07
2022-11-09T08:23:29.741Z,74.68
2022-11-09T08:26:05.861Z,75.38
2022-11-09T08:28:38.913Z,75.05
2022-11-09T08:31:12.046Z,78.63
2022-11-09T08:33:45.099Z,84.78
2022-11-09T08:36:19.354Z,81.07
2022-11-09T08:38:52.178Z,76.95
2022-11-09T08:41:25.367Z,72.28
2022-11-09T08:43:58.248Z,73.32
2022-11-09T08:46:31.155Z,74.90
2022-11-09T08:49:03.987Z,69.78
2022-11-09T08:51:36.906Z,72.95
2022-11-09T08:54:11.732Z,71.85
2022-11-09T08:56:46.699Z,69.07
2022-11-09T08:59:19.654Z,67.75
2022-11-09T09:01:52.444Z,68.43
2022-11-09T09:04:25.635Z,72.88
2022-11-09T09:07:00.683Z,70.30
2022-11-09T09:09:35.215Z,69.45
2022-11-09T09:12:09.723Z,68.30
2022-11-09T09:14:42.671Z,64.63
2022-11-09T09:17:16.322Z,64.35
2022-11-09T09:19:50.248Z,66.10
2022-11-09T09:22:23.399Z,65.57
2022-11-09T09:24:56.500Z,66.32
2022-11-09T09:27:30.700Z,66.15
2022-11-09T09:30:04.765Z,65.75
2022-11-09T09:32:37.927Z,67.15
2022-11-09T09:35:11.077Z,63.58
2022-11-09T09:37:45.130Z,67.35
2022-11-09T09:40:25.480Z,67.00
2022-11-09T09:42:58.553Z,66.43
2022-11-09T09:45:35.000Z,66.20
2022-11-09T09:48:11.533Z,59.05
2022-11-09T09:50:51.358Z,66.43
2022-11-09T09:53:34.541Z,62.50
2022-11-09T09:56:12.537Z,62.97
2022-11-09T09:58:57.196Z,61.65
2022-11-09T10:01:39.270Z,62.72
2022-11-09T10:04:23.958Z,61.40
2022-11-09T10:07:05.094Z,61.33
2022-11-09T10:09:46.008Z,62.33
2022-11-09T10:12:26.709Z,64.45
2022-11-09T10:15:22.419Z,64.53
2022-11-09T10:18:12.220Z,65.43
2022-11-09T10:21:08.910Z,64.85
2022-11-09T10:24:03.183Z,64.53
2022-11-09T10:26:43.522Z,62.63
2022-11-09T10:29:21.050Z,64.03
2022-11-09T10:31:59.404Z,61.55
2022-11-09T10:34:40.877Z,63.38
2022-11-09T10:37:32.615Z,62.13
2022-11-09T10:40:13.532Z,60.75
2022-11-09T10:46:05.458Z,60.28
2022-11-09T10:48:56.188Z,61.20
2022-11-09T10:51:46.920Z,62.42
2022-11-09T10:54:38.370Z,60.10
2022-11-09T10:57:26.751Z,61.40
2022-11-09T11:00:18.465Z,65.10
2022-11-09T11:03:17.831Z,64.15
2022-11-09T11:06:22.531Z,66.35
2022-11-09T11:09:11.146Z,67.13
2022-11-09T11:12:15.808Z,66.00
2022-11-09T11:15:20.973Z,64.20
2022-11-09T11:18:19.870Z,66.05
2022-11-09T11:21:19.739Z,69.13
2022-11-09T11:24:13.589Z,69.13
2022-11-09T11:27:10.632Z,69.43
2022-11-09T11:30:01.485Z,68.13
2022-11-09T11:32:51.107Z,71.07
2022-11-09T11:35:44.307Z,73.43
2022-11-09T11:38:37.783Z,73.00
2022-11-09T11:41:41.583Z,73.80
2022-11-09T11:45:18.973Z,75.78
2022-11-09T11:48:24.451Z,67.32
2022-11-09T11:51:33.061Z,74.10
2022-11-09T11:54:31.125Z,73.30
2022-11-09T11:57:30.052Z,73.82
2022-11-09T12:00:20.911Z,75.03
2022-11-09T12:03:24.400Z,73.85
2022-11-09T12:06:19.019Z,76.65
2022-11-09T12:09:23.131Z,73.63
2022-11-09T12:12:16.142Z,77.57
2022-11-09T12:15:21.052Z,77.53
2022-11-09T12:18:34.897Z,78.13
2022-11-09T12:21:35.135Z,79.10
2022-11-09T12:24:44.240Z,82.72
2022-11-09T12:27:57.386Z,77.47
2022-11-09T12:30:54.972Z,85.10
2022-11-09T12:33:49.600Z,83.80
2022-11-09T12:36:47.409Z,83.38
2022-11-09T12:39:39.194Z,82.65
2022-11-09T12:42:36.145Z,83.18
2022-11-09T12:45:32.970Z,80.85
2022-11-09T12:48:31.638Z,78.05
2022-11-09T12:51:21.290Z,82.32
2022-11-09T12:54:12.146Z,84.65
2022-11-09T12:57:07.888Z,83.50
2022-11-09T12:59:58.578Z,81.13
2022-11-09T13:02:58.311Z,81.50
2022-11-09T13:05:47.999Z,81.72
2022-11-09T13:08:38.390Z,82.13
2022-11-09T13:11:34.477Z,85.72
2022-11-09T13:17:27.578Z,82.85
2022-11-09T13:20:54.461Z,85.55
2022-11-09T13:24:01.976Z,86.32
2022-11-09T13:26:52.238Z,83.68
2022-11-09T13:29:41.031Z,83.82
2022-11-09T13:32:34.110Z,80.28
2022-11-09T13:35:41.546Z,80.97
2022-11-09T13:38:32.203Z,81.35
2022-11-09T13:41:38.005Z,78.22
2022-11-09T13:44:32.870Z,79.28
2022-11-09T13:47:35.081Z,80.18
2022-11-09T13:50:26.264Z,81.53
2022-11-09T13:53:31.632Z,78.63
2022-11-09T13:56:27.484Z,78.38
2022-11-09T13:59:32.113Z,79.03
2022-11-09T14:02:26.293Z,77.50
2022-11-09T14:05:28.530Z,78.47
2022-11-09T14:08:24.612Z,76.07
2022-11-09T14:11:31.934Z,78.25
2022-11-09T14:14:50.185Z,79.32
2022-11-09T14:18:11.250Z,79.38
2022-11-09T14:21:15.621Z,79.57
2022-11-09T14:24:17.400Z,76.57
2022-11-09T14:27:15.378Z,75.72
2022-11-09T14:30:15.184Z,84.80
2022-11-09T14:33:03.633Z,78.70
2022-11-09T14:35:54.315Z,76.70
2022-11-09T14:38:48.384Z,76.55
2022-11-09T14:41:37.014Z,75.60
2022-11-09T14:44:27.870Z,75.82
2022-11-09T14:47:26.257Z,72.35
2022-11-09T14:50:34.151Z,74.40
2022-11-09T14:53:28.790Z,71.45
2022-11-09T14:56:21.253Z,73.55
2022-11-09T14:59:14.244Z,69.53
2022-11-09T15:02:08.248Z,70.60
2022-11-09T15:04:59.174Z,70.43
2022-11-09T15:07:48.741Z,65.45
2022-11-09T15:10:38.188Z,62.35
2022-11-09T15:13:32.583Z,61.50
2022-11-09T15:16:24.461Z,54.97
2022-11-09T15:19:30.233Z,53.67
2022-11-09T15:22:37.926Z,52.22
2022-11-09T15:25:33.009Z,52.05
2022-11-09T15:28:25.882Z,51.72
2022-11-09T15:31:16.744Z,51.97
2022-11-09T15:34:22.412Z,52.70
2022-11-09T15:37:28.537Z,52.65
2022-11-09T15:40:20.628Z,54.55
2022-11-09T15:43:08.801Z,53.53
2022-11-09T15:45:59.875Z,52.92
2022-11-09T15:48:48.223Z,54.78
2022-11-09T15:51:36.347Z,56.35
2022-11-09T15:54:25.229Z,54.50
2022-11-09T15:57:19.790Z,52.70
2022-11-09T16:00:15.475Z,53.90
2022-11-09T16:03:08.367Z,54.70
2022-11-09T16:05:56.852Z,55.22
2022-11-09T16:08:49.073Z,54.90
2022-11-09T16:11:38.152Z,57.50
2022-11-09T16:14:26.729Z,56.83
2022-11-09T16:17:15.027Z,56.42
2022-11-09T16:20:04.364Z,53.75
2022-11-09T16:22:52.479Z,56.60
2022-11-09T16:25:41.319Z,55.65
2022-11-09T16:28:30.410Z,57.00
2022-11-09T16:31:40.978Z,57.08
2022-11-09T16:34:27.514Z,57.00
2022-11-09T16:37:15.834Z,55.95
2022-11-09T16:40:10.052Z,54.55
2022-11-09T16:43:00.551Z,56.45
2022-11-09T16:45:50.763Z,56.25
2022-11-09T16:48:39.228Z,55.47
2022-11-09T16:51:27.739Z,56.42
2022-11-09T16:54:16.560Z,57.45
2022-11-09T16:57:04.574Z,55.20
2022-11-09T16:59:52.738Z,58.13
2022-11-09T17:02:40.806Z,55.97
2022-11-09T17:05:30.205Z,55.60
2022-11-09T17:08:19.290Z,58.05
2022-11-09T17:11:10.555Z,54.80
2022-11-09T17:13:59.957Z,58.80
2022-11-09T17:16:49.459Z,58.83
2022-11-09T17:19:38.003Z,56.20
2022-11-09T17:22:25.972Z,56.10
2022-11-09T17:25:14.232Z,56.67
2022-11-09T17:28:04.247Z,57.45
2022-11-09T17:30:53.313Z,57.28
2022-11-09T17:33:42.872Z,57.55
2022-11-09T17:37:02.365Z,63.10
2022-11-09T17:39:42.087Z,67.28
2022-11-09T17:42:30.973Z,61.08
2022-11-09T17:45:20.313Z,62.78
2022-11-09T17:48:09.410Z,58.38
2022-11-09T17:50:58.586Z,59.25
2022-11-09T17:53:47.728Z,59.97
2022-11-09T17:56:36.143Z,58.20
2022-11-09T17:59:25.348Z,57.95
2022-11-09T18:02:15.744Z,60.20
2022-11-09T18:05:04.514Z,59.53
2022-11-09T18:07:53.112Z,66.53
2022-11-09T18:10:44.379Z,69.10
2022-11-09T18:13:33.142Z,61.33
2022-11-09T18:16:21.816Z,57.75
2022-11-09T18:19:09.918Z,63.88
2022-11-09T18:22:02.681Z,63.78
2022-11-09T18:24:52.047Z,64.28
2022-11-09T18:27:41.058Z,60.50
2022-11-09T18:30:30.024Z,62.83
2022-11-09T18:33:18.348Z,60.05
2022-11-09T18:36:12.465Z,67.25
2022-11-09T18:39:03.795Z,77.57
2022-11-09T18:41:52.412Z,67.47
2022-11-09T18:44:42.059Z,57.25
2022-11-09T18:47:30.908Z,61.13
2022-11-09T18:50:20.412Z,59.65
2022-11-09T18:53:09.311Z,59.90
2022-11-09T18:56:06.516Z,69.13
2022-11-09T18:58:56.716Z,61.45
2022-11-09T19:01:45.510Z,61.42
2022-11-09T19:04:33.743Z,58.63
2022-11-09T19:07:22.508Z,64.80
2022-11-09T19:10:10.817Z,61.10
2022-11-09T19:12:58.987Z,63.50
2022-11-09T19:15:47.188Z,68.32
2022-11-09T19:18:35.135Z,63.58
2022-11-09T19:21:42.186Z,61.28
2022-11-09T19:24:31.376Z,66.10
2022-11-09T19:27:20.068Z,66.47
2022-11-09T19:30:10.036Z,71.43
2022-11-09T19:32:58.468Z,63.83
2022-11-09T19:36:15.218Z,65.30
2022-11-09T19:39:01.833Z,65.55
2022-11-09T19:41:50.524Z,66.90
2022-11-09T19:44:39.590Z,71.65
2022-11-09T19:47:29.530Z,65.97
2022-11-09T19:50:17.899Z,62.60
2022-11-09T19:53:06.409Z,62.38
2022-11-09T19:56:05.126Z,68.25
2022-11-09T19:58:56.985Z,62.75
2022-11-09T20:01:46.017Z,63.60
2022-11-09T20:04:35.179Z,65.53
2022-11-09T20:07:23.686Z,66.63
2022-11-09T20:10:12.610Z,64.53
2022-11-09T20:13:01.142Z,68.40
2022-11-09T20:15:50.140Z,68.05
2022-11-09T20:18:40.329Z,69.15
2022-11-09T20:21:28.546Z,70.82
2022-11-09T20:24:17.118Z,68.10
2022-11-09T20:27:05.482Z,73.63
2022-11-09T20:29:54.156Z,73.07
2022-11-09T20:32:43.513Z,72.15
2022-11-09T20:35:32.426Z,71.68
2022-11-09T20:38:22.163Z,77.68
2022-11-09T20:41:13.849Z,78.18
2022-11-09T20:44:02.054Z,75.38
2022-11-09T20:46:50.081Z,74.35
2022-11-09T20:49:38.931Z,79.43
2022-11-09T20:52:27.720Z,77.95
2022-11-09T20:55:15.801Z,77.28
2022-11-09T20:58:05.251Z,76.80
2022-11-09T21:01:17.457Z,76.70
2022-11-09T21:04:06.097Z,84.93
2022-11-09T21:06:54.557Z,86.05
2022-11-09T21:09:43.542Z,82.88
2022-11-09T21:12:32.516Z,78.65
2022-11-09T21:15:21.038Z,78.93
2022-11-09T21:18:09.746Z,76.15
2022-11-09T21:21:03.415Z,74.80
2022-11-09T21:24:07.142Z,75.75
2022-11-09T21:27:10.538Z,80.40
2022-11-09T21:29:58.829Z,77.05
2022-11-09T21:32:47.693Z,77.35
2022-11-09T21:35:35.809Z,76.68
2022-11-09T21:38:24.792Z,78.60
2022-11-09T21:41:28.463Z,75.63
2022-11-09T21:44:17.145Z,83.50
2022-11-09T21:47:05.575Z,78.47
2022-11-09T21:49:54.334Z,79.78
2022-11-09T21:52:42.530Z,78.45
2022-11-09T21:55:31.214Z,78.93
2022-11-09T21:58:19.463Z,80.57
2022-11-09T22:01:11.387Z,76.72
2022-11-09T22:04:00.730Z,82.50
2022-11-09T22:06:49.168Z,79.70
2022-11-09T22:10:05.915Z,84.43
2022-11-09T22:13:01.216Z,80.93
2022-11-09T22:16:04.646Z,88.82
2022-11-09T22:19:08.920Z,80.50
2022-11-09T22:21:57.391Z,87.10
2022-11-09T22:24:45.990Z,88.95
2022-11-09T22:27:35.092Z,82.18
2022-11-09T22:30:22.948Z,89.90
2022-11-09T22:33:11.263Z,88.95
2022-11-09T22:36:03.105Z,85.88
2022-11-09T22:38:51.952Z,86.90
2022-11-09T22:41:40.909Z,88.97
2022-11-09T22:44:28.949Z,88.43
2022-11-09T22:47:17.261Z,89.90
2022-11-09T22:50:06.122Z,86.03
2022-11-09T22:53:02.366Z,87.93
2022-11-09T22:55:56.936Z,94.65
2022-11-09T22:58:45.854Z,89.93
2022-11-09T23:01:34.126Z,79.28
2022-11-09T23:04:22.629Z,82.45
2022-11-09T23:07:10.906Z,82.35
2022-11-09T23:09:58.968Z,79.78
2022-11-09T23:12:47.512Z,78.93
2022-11-09T23:15:35.575Z,77.68
2022-11-09T23:18:40.032Z,73.32
2022-11-09T23:21:37.735Z,77.07
2022-11-09T23:24:41.773Z,72.82
2022-11-09T23:27:30.106Z,73.05
2022-11-09T23:30:18.787Z,71.93
2022-11-09T23:33:07.375Z,70.78
2022-11-09T23:35:56.584Z,71.20
2022-11-09T23:38:44.404Z,72.78
2022-11-09T23:41:32.950Z,74.45
2022-11-09T23:44:20.756Z,70.03
2022-11-09T23:47:10.262Z,79.80
2022-11-09T23:49:58.371Z,75.75
2022-11-09T23:52:46.897Z,70.93
2022-11-09T23:55:35.172Z,74.13
2022-11-09T23:58:23.366Z,72.63
